<?xml version="1.0" encoding="UTF-8" standalone="no" ?>
<gpx xmlns="http://www.topografix.com/GPX/1/1" xmlns:xsi="http://www.w3.org/2001/XMLSchema-instance" xsi:schemaLocation="http://www.topografix.com/GPX/1/1 http://www.topografix.com/GPX/1/1/gpx.xsd" version="1.1" creator="VisuGPX - https://www.visugpx.com">
  <metadata>
    <name>Circuit du 25-06-2012</name>
    <desc><![CDATA[Circuit du 25-06-2012]]></desc>
  </metadata>
  <wpt lat="45.3836" lon="3.75122">
    <ele>663.09997558594</ele>
    <name><![CDATA[Start]]></name>
  </wpt>
  <wpt lat="45.38433" lon="3.75315">
    <ele>667.09997558594</ele>
    <name><![CDATA[End]]></name>
  </wpt>
  <trk>
    <name><![CDATA[Circuit du 25-06-2012_1]]></name>
    <trkseg>
      <trkpt lat="45.3836" lon="3.75122">
        <ele>663.09997558594</ele>
        <time>2012-06-25T16:36:47Z</time>
      </trkpt>
      <trkpt lat="45.38362" lon="3.75113">
        <ele>662.5</ele>
        <time>2012-06-25T16:36:50Z</time>
      </trkpt>
      <trkpt lat="45.3836" lon="3.75105">
        <ele>658.90002441406</ele>
        <time>2012-06-25T16:36:55Z</time>
      </trkpt>
      <trkpt lat="45.38368" lon="3.75099">
        <ele>660.29998779297</ele>
        <time>2012-06-25T16:37:00Z</time>
      </trkpt>
      <trkpt lat="45.38375" lon="3.75101">
        <ele>660.20001220703</ele>
        <time>2012-06-25T16:37:04Z</time>
      </trkpt>
      <trkpt lat="45.3838" lon="3.75097">
        <ele>659.90002441406</ele>
        <time>2012-06-25T16:37:07Z</time>
      </trkpt>
      <trkpt lat="45.38385" lon="3.75094">
        <ele>660.5</ele>
        <time>2012-06-25T16:37:09Z</time>
      </trkpt>
      <trkpt lat="45.3839" lon="3.75094">
        <ele>661.29998779297</ele>
        <time>2012-06-25T16:37:12Z</time>
      </trkpt>
      <trkpt lat="45.38395" lon="3.75096">
        <ele>661.90002441406</ele>
        <time>2012-06-25T16:37:15Z</time>
      </trkpt>
      <trkpt lat="45.38402" lon="3.75099">
        <ele>662.29998779297</ele>
        <time>2012-06-25T16:37:17Z</time>
      </trkpt>
      <trkpt lat="45.38408" lon="3.75106">
        <ele>660.70001220703</ele>
        <time>2012-06-25T16:37:21Z</time>
      </trkpt>
      <trkpt lat="45.38412" lon="3.75111">
        <ele>661.29998779297</ele>
        <time>2012-06-25T16:37:23Z</time>
      </trkpt>
      <trkpt lat="45.38422" lon="3.75118">
        <ele>664.70001220703</ele>
        <time>2012-06-25T16:37:29Z</time>
      </trkpt>
      <trkpt lat="45.38426" lon="3.75125">
        <ele>663.09997558594</ele>
        <time>2012-06-25T16:37:32Z</time>
      </trkpt>
      <trkpt lat="45.38429" lon="3.7513">
        <ele>662.70001220703</ele>
        <time>2012-06-25T16:37:34Z</time>
      </trkpt>
      <trkpt lat="45.38457" lon="3.75127">
        <ele>660.59997558594</ele>
        <time>2012-06-25T16:37:49Z</time>
      </trkpt>
      <trkpt lat="45.38465" lon="3.75126">
        <ele>660.20001220703</ele>
        <time>2012-06-25T16:37:51Z</time>
      </trkpt>
      <trkpt lat="45.3847" lon="3.75125">
        <ele>659.5</ele>
        <time>2012-06-25T16:37:52Z</time>
      </trkpt>
      <trkpt lat="45.38475" lon="3.75125">
        <ele>661.5</ele>
        <time>2012-06-25T16:37:54Z</time>
      </trkpt>
      <trkpt lat="45.38479" lon="3.75126">
        <ele>659.29998779297</ele>
        <time>2012-06-25T16:37:59Z</time>
      </trkpt>
      <trkpt lat="45.38484" lon="3.75125">
        <ele>658.90002441406</ele>
        <time>2012-06-25T16:38:01Z</time>
      </trkpt>
      <trkpt lat="45.38489" lon="3.75123">
        <ele>659.70001220703</ele>
        <time>2012-06-25T16:38:03Z</time>
      </trkpt>
      <trkpt lat="45.38494" lon="3.75123">
        <ele>658</ele>
        <time>2012-06-25T16:38:06Z</time>
      </trkpt>
      <trkpt lat="45.385" lon="3.75122">
        <ele>657.90002441406</ele>
        <time>2012-06-25T16:38:09Z</time>
      </trkpt>
      <trkpt lat="45.38519" lon="3.75113">
        <ele>657.5</ele>
        <time>2012-06-25T16:38:16Z</time>
      </trkpt>
      <trkpt lat="45.38526" lon="3.75111">
        <ele>658.40002441406</ele>
        <time>2012-06-25T16:38:19Z</time>
      </trkpt>
      <trkpt lat="45.38531" lon="3.75112">
        <ele>658</ele>
        <time>2012-06-25T16:38:22Z</time>
      </trkpt>
      <trkpt lat="45.38535" lon="3.75106">
        <ele>655</ele>
        <time>2012-06-25T16:38:26Z</time>
      </trkpt>
      <trkpt lat="45.38541" lon="3.75102">
        <ele>652.5</ele>
        <time>2012-06-25T16:38:29Z</time>
      </trkpt>
      <trkpt lat="45.38544" lon="3.75098">
        <ele>651.90002441406</ele>
        <time>2012-06-25T16:38:31Z</time>
      </trkpt>
      <trkpt lat="45.38551" lon="3.75095">
        <ele>648.79998779297</ele>
        <time>2012-06-25T16:38:34Z</time>
      </trkpt>
      <trkpt lat="45.38554" lon="3.7509">
        <ele>649</ele>
        <time>2012-06-25T16:38:36Z</time>
      </trkpt>
      <trkpt lat="45.3856" lon="3.75081">
        <ele>649</ele>
        <time>2012-06-25T16:38:40Z</time>
      </trkpt>
      <trkpt lat="45.38565" lon="3.7508">
        <ele>649.90002441406</ele>
        <time>2012-06-25T16:38:42Z</time>
      </trkpt>
      <trkpt lat="45.3857" lon="3.75075">
        <ele>648.40002441406</ele>
        <time>2012-06-25T16:38:45Z</time>
      </trkpt>
      <trkpt lat="45.38574" lon="3.75071">
        <ele>646.09997558594</ele>
        <time>2012-06-25T16:38:48Z</time>
      </trkpt>
      <trkpt lat="45.38575" lon="3.75064">
        <ele>644.90002441406</ele>
        <time>2012-06-25T16:38:51Z</time>
      </trkpt>
      <trkpt lat="45.38581" lon="3.75058">
        <ele>646.40002441406</ele>
        <time>2012-06-25T16:38:54Z</time>
      </trkpt>
      <trkpt lat="45.38585" lon="3.75053">
        <ele>646.29998779297</ele>
        <time>2012-06-25T16:38:57Z</time>
      </trkpt>
      <trkpt lat="45.38589" lon="3.75048">
        <ele>645.90002441406</ele>
        <time>2012-06-25T16:38:59Z</time>
      </trkpt>
      <trkpt lat="45.38592" lon="3.75042">
        <ele>647</ele>
        <time>2012-06-25T16:39:01Z</time>
      </trkpt>
      <trkpt lat="45.38595" lon="3.75038">
        <ele>646</ele>
        <time>2012-06-25T16:39:03Z</time>
      </trkpt>
      <trkpt lat="45.386" lon="3.75032">
        <ele>645.79998779297</ele>
        <time>2012-06-25T16:39:06Z</time>
      </trkpt>
      <trkpt lat="45.38603" lon="3.75027">
        <ele>643.5</ele>
        <time>2012-06-25T16:39:08Z</time>
      </trkpt>
      <trkpt lat="45.38608" lon="3.75018">
        <ele>643.79998779297</ele>
        <time>2012-06-25T16:39:11Z</time>
      </trkpt>
      <trkpt lat="45.38612" lon="3.75012">
        <ele>643</ele>
        <time>2012-06-25T16:39:14Z</time>
      </trkpt>
      <trkpt lat="45.3862" lon="3.75">
        <ele>641.09997558594</ele>
        <time>2012-06-25T16:39:20Z</time>
      </trkpt>
      <trkpt lat="45.38628" lon="3.74994">
        <ele>642.90002441406</ele>
        <time>2012-06-25T16:39:24Z</time>
      </trkpt>
      <trkpt lat="45.38633" lon="3.74989">
        <ele>643.29998779297</ele>
        <time>2012-06-25T16:39:27Z</time>
      </trkpt>
      <trkpt lat="45.38637" lon="3.74987">
        <ele>643.29998779297</ele>
        <time>2012-06-25T16:39:30Z</time>
      </trkpt>
      <trkpt lat="45.38644" lon="3.74984">
        <ele>643.5</ele>
        <time>2012-06-25T16:39:33Z</time>
      </trkpt>
      <trkpt lat="45.38648" lon="3.74982">
        <ele>642.5</ele>
        <time>2012-06-25T16:39:35Z</time>
      </trkpt>
      <trkpt lat="45.38655" lon="3.7498">
        <ele>642.79998779297</ele>
        <time>2012-06-25T16:39:38Z</time>
      </trkpt>
      <trkpt lat="45.38661" lon="3.74975">
        <ele>643</ele>
        <time>2012-06-25T16:39:41Z</time>
      </trkpt>
      <trkpt lat="45.38666" lon="3.74972">
        <ele>643.5</ele>
        <time>2012-06-25T16:39:43Z</time>
      </trkpt>
      <trkpt lat="45.38671" lon="3.74968">
        <ele>642.59997558594</ele>
        <time>2012-06-25T16:39:46Z</time>
      </trkpt>
      <trkpt lat="45.38677" lon="3.74966">
        <ele>644</ele>
        <time>2012-06-25T16:39:49Z</time>
      </trkpt>
      <trkpt lat="45.38682" lon="3.74965">
        <ele>644.09997558594</ele>
        <time>2012-06-25T16:39:51Z</time>
      </trkpt>
      <trkpt lat="45.38688" lon="3.74961">
        <ele>644.20001220703</ele>
        <time>2012-06-25T16:39:54Z</time>
      </trkpt>
      <trkpt lat="45.38693" lon="3.74957">
        <ele>643.20001220703</ele>
        <time>2012-06-25T16:39:57Z</time>
      </trkpt>
      <trkpt lat="45.387" lon="3.74954">
        <ele>643.40002441406</ele>
        <time>2012-06-25T16:40:00Z</time>
      </trkpt>
      <trkpt lat="45.38704" lon="3.74953">
        <ele>644.59997558594</ele>
        <time>2012-06-25T16:40:02Z</time>
      </trkpt>
      <trkpt lat="45.3871" lon="3.74949">
        <ele>645.70001220703</ele>
        <time>2012-06-25T16:40:05Z</time>
      </trkpt>
      <trkpt lat="45.38748" lon="3.7493">
        <ele>643.09997558594</ele>
        <time>2012-06-25T16:40:19Z</time>
      </trkpt>
      <trkpt lat="45.38756" lon="3.74932">
        <ele>643.79998779297</ele>
        <time>2012-06-25T16:40:22Z</time>
      </trkpt>
      <trkpt lat="45.38759" lon="3.74927">
        <ele>643.70001220703</ele>
        <time>2012-06-25T16:40:24Z</time>
      </trkpt>
      <trkpt lat="45.38765" lon="3.74923">
        <ele>644</ele>
        <time>2012-06-25T16:40:26Z</time>
      </trkpt>
      <trkpt lat="45.38765" lon="3.74916">
        <ele>645.90002441406</ele>
        <time>2012-06-25T16:40:28Z</time>
      </trkpt>
      <trkpt lat="45.38771" lon="3.74912">
        <ele>649.29998779297</ele>
        <time>2012-06-25T16:40:30Z</time>
      </trkpt>
      <trkpt lat="45.38776" lon="3.7491">
        <ele>653.90002441406</ele>
        <time>2012-06-25T16:40:32Z</time>
      </trkpt>
      <trkpt lat="45.38781" lon="3.74907">
        <ele>651</ele>
        <time>2012-06-25T16:40:35Z</time>
      </trkpt>
      <trkpt lat="45.38789" lon="3.74903">
        <ele>654</ele>
        <time>2012-06-25T16:40:39Z</time>
      </trkpt>
      <trkpt lat="45.38793" lon="3.74898">
        <ele>654.59997558594</ele>
        <time>2012-06-25T16:40:42Z</time>
      </trkpt>
      <trkpt lat="45.38798" lon="3.74893">
        <ele>654</ele>
        <time>2012-06-25T16:40:46Z</time>
      </trkpt>
      <trkpt lat="45.38804" lon="3.74883">
        <ele>652.79998779297</ele>
        <time>2012-06-25T16:40:49Z</time>
      </trkpt>
      <trkpt lat="45.3881" lon="3.74883">
        <ele>650</ele>
        <time>2012-06-25T16:40:52Z</time>
      </trkpt>
      <trkpt lat="45.38816" lon="3.74883">
        <ele>651</ele>
        <time>2012-06-25T16:40:56Z</time>
      </trkpt>
      <trkpt lat="45.3882" lon="3.74881">
        <ele>649.59997558594</ele>
        <time>2012-06-25T16:40:59Z</time>
      </trkpt>
      <trkpt lat="45.38826" lon="3.74879">
        <ele>646.79998779297</ele>
        <time>2012-06-25T16:41:03Z</time>
      </trkpt>
      <trkpt lat="45.38831" lon="3.74878">
        <ele>646.09997558594</ele>
        <time>2012-06-25T16:41:05Z</time>
      </trkpt>
      <trkpt lat="45.38837" lon="3.74879">
        <ele>648.09997558594</ele>
        <time>2012-06-25T16:41:07Z</time>
      </trkpt>
      <trkpt lat="45.38841" lon="3.74882">
        <ele>647.29998779297</ele>
        <time>2012-06-25T16:41:09Z</time>
      </trkpt>
      <trkpt lat="45.3885" lon="3.74883">
        <ele>649.79998779297</ele>
        <time>2012-06-25T16:41:13Z</time>
      </trkpt>
      <trkpt lat="45.38855" lon="3.74881">
        <ele>649</ele>
        <time>2012-06-25T16:41:16Z</time>
      </trkpt>
      <trkpt lat="45.3886" lon="3.7488">
        <ele>648.09997558594</ele>
        <time>2012-06-25T16:41:19Z</time>
      </trkpt>
      <trkpt lat="45.38866" lon="3.74881">
        <ele>648.40002441406</ele>
        <time>2012-06-25T16:41:22Z</time>
      </trkpt>
      <trkpt lat="45.38874" lon="3.74877">
        <ele>644.20001220703</ele>
        <time>2012-06-25T16:41:27Z</time>
      </trkpt>
      <trkpt lat="45.38879" lon="3.74873">
        <ele>640.20001220703</ele>
        <time>2012-06-25T16:41:31Z</time>
      </trkpt>
      <trkpt lat="45.38884" lon="3.74873">
        <ele>638.09997558594</ele>
        <time>2012-06-25T16:41:34Z</time>
      </trkpt>
      <trkpt lat="45.38892" lon="3.74873">
        <ele>640.79998779297</ele>
        <time>2012-06-25T16:41:37Z</time>
      </trkpt>
      <trkpt lat="45.38898" lon="3.74874">
        <ele>642</ele>
        <time>2012-06-25T16:41:41Z</time>
      </trkpt>
      <trkpt lat="45.38904" lon="3.74875">
        <ele>643</ele>
        <time>2012-06-25T16:41:44Z</time>
      </trkpt>
      <trkpt lat="45.38909" lon="3.74876">
        <ele>643.29998779297</ele>
        <time>2012-06-25T16:41:46Z</time>
      </trkpt>
      <trkpt lat="45.38921" lon="3.74873">
        <ele>644.20001220703</ele>
        <time>2012-06-25T16:41:52Z</time>
      </trkpt>
      <trkpt lat="45.38928" lon="3.74872">
        <ele>642.79998779297</ele>
        <time>2012-06-25T16:41:55Z</time>
      </trkpt>
      <trkpt lat="45.38936" lon="3.74868">
        <ele>641.70001220703</ele>
        <time>2012-06-25T16:42:00Z</time>
      </trkpt>
      <trkpt lat="45.3894" lon="3.74864">
        <ele>640.40002441406</ele>
        <time>2012-06-25T16:42:02Z</time>
      </trkpt>
      <trkpt lat="45.38945" lon="3.74865">
        <ele>642.20001220703</ele>
        <time>2012-06-25T16:42:04Z</time>
      </trkpt>
      <trkpt lat="45.38951" lon="3.74864">
        <ele>642.70001220703</ele>
        <time>2012-06-25T16:42:07Z</time>
      </trkpt>
      <trkpt lat="45.38957" lon="3.74864">
        <ele>641.20001220703</ele>
        <time>2012-06-25T16:42:10Z</time>
      </trkpt>
      <trkpt lat="45.38964" lon="3.74865">
        <ele>642</ele>
        <time>2012-06-25T16:42:12Z</time>
      </trkpt>
      <trkpt lat="45.3897" lon="3.74864">
        <ele>640.20001220703</ele>
        <time>2012-06-25T16:42:15Z</time>
      </trkpt>
      <trkpt lat="45.38977" lon="3.74864">
        <ele>638.79998779297</ele>
        <time>2012-06-25T16:42:19Z</time>
      </trkpt>
      <trkpt lat="45.38982" lon="3.74865">
        <ele>640.09997558594</ele>
        <time>2012-06-25T16:42:21Z</time>
      </trkpt>
      <trkpt lat="45.38988" lon="3.74861">
        <ele>638.5</ele>
        <time>2012-06-25T16:42:24Z</time>
      </trkpt>
      <trkpt lat="45.38992" lon="3.74861">
        <ele>640.59997558594</ele>
        <time>2012-06-25T16:42:26Z</time>
      </trkpt>
      <trkpt lat="45.38998" lon="3.74862">
        <ele>640.79998779297</ele>
        <time>2012-06-25T16:42:29Z</time>
      </trkpt>
      <trkpt lat="45.39003" lon="3.74861">
        <ele>640.5</ele>
        <time>2012-06-25T16:42:32Z</time>
      </trkpt>
      <trkpt lat="45.3901" lon="3.74864">
        <ele>643.09997558594</ele>
        <time>2012-06-25T16:42:34Z</time>
      </trkpt>
      <trkpt lat="45.39014" lon="3.74865">
        <ele>643.59997558594</ele>
        <time>2012-06-25T16:42:36Z</time>
      </trkpt>
      <trkpt lat="45.3902" lon="3.74868">
        <ele>639.29998779297</ele>
        <time>2012-06-25T16:42:40Z</time>
      </trkpt>
      <trkpt lat="45.39029" lon="3.74871">
        <ele>640.70001220703</ele>
        <time>2012-06-25T16:42:44Z</time>
      </trkpt>
      <trkpt lat="45.39035" lon="3.74872">
        <ele>642.09997558594</ele>
        <time>2012-06-25T16:42:47Z</time>
      </trkpt>
      <trkpt lat="45.3904" lon="3.74874">
        <ele>642.79998779297</ele>
        <time>2012-06-25T16:42:49Z</time>
      </trkpt>
      <trkpt lat="45.39045" lon="3.74874">
        <ele>642.70001220703</ele>
        <time>2012-06-25T16:42:51Z</time>
      </trkpt>
      <trkpt lat="45.39057" lon="3.74876">
        <ele>644.29998779297</ele>
        <time>2012-06-25T16:42:56Z</time>
      </trkpt>
      <trkpt lat="45.39062" lon="3.74876">
        <ele>643</ele>
        <time>2012-06-25T16:42:59Z</time>
      </trkpt>
      <trkpt lat="45.39068" lon="3.74875">
        <ele>640.59997558594</ele>
        <time>2012-06-25T16:43:02Z</time>
      </trkpt>
      <trkpt lat="45.39074" lon="3.74877">
        <ele>641.20001220703</ele>
        <time>2012-06-25T16:43:05Z</time>
      </trkpt>
      <trkpt lat="45.3909" lon="3.74874">
        <ele>643.79998779297</ele>
        <time>2012-06-25T16:43:12Z</time>
      </trkpt>
      <trkpt lat="45.39095" lon="3.74873">
        <ele>644.20001220703</ele>
        <time>2012-06-25T16:43:15Z</time>
      </trkpt>
      <trkpt lat="45.39101" lon="3.74871">
        <ele>643.70001220703</ele>
        <time>2012-06-25T16:43:18Z</time>
      </trkpt>
      <trkpt lat="45.39107" lon="3.74871">
        <ele>645.40002441406</ele>
        <time>2012-06-25T16:43:20Z</time>
      </trkpt>
      <trkpt lat="45.39111" lon="3.74868">
        <ele>646.20001220703</ele>
        <time>2012-06-25T16:43:22Z</time>
      </trkpt>
      <trkpt lat="45.39116" lon="3.74866">
        <ele>643.40002441406</ele>
        <time>2012-06-25T16:43:25Z</time>
      </trkpt>
      <trkpt lat="45.39124" lon="3.74863">
        <ele>640.5</ele>
        <time>2012-06-25T16:43:29Z</time>
      </trkpt>
      <trkpt lat="45.3913" lon="3.74859">
        <ele>638.90002441406</ele>
        <time>2012-06-25T16:43:32Z</time>
      </trkpt>
      <trkpt lat="45.39135" lon="3.74855">
        <ele>637.70001220703</ele>
        <time>2012-06-25T16:43:35Z</time>
      </trkpt>
      <trkpt lat="45.39141" lon="3.74853">
        <ele>637.70001220703</ele>
        <time>2012-06-25T16:43:38Z</time>
      </trkpt>
      <trkpt lat="45.39145" lon="3.74852">
        <ele>637</ele>
        <time>2012-06-25T16:43:40Z</time>
      </trkpt>
      <trkpt lat="45.39151" lon="3.74853">
        <ele>638.70001220703</ele>
        <time>2012-06-25T16:43:42Z</time>
      </trkpt>
      <trkpt lat="45.39156" lon="3.74851">
        <ele>639.09997558594</ele>
        <time>2012-06-25T16:43:44Z</time>
      </trkpt>
      <trkpt lat="45.39162" lon="3.7485">
        <ele>638</ele>
        <time>2012-06-25T16:43:47Z</time>
      </trkpt>
      <trkpt lat="45.39169" lon="3.74852">
        <ele>637.5</ele>
        <time>2012-06-25T16:43:52Z</time>
      </trkpt>
      <trkpt lat="45.39177" lon="3.74859">
        <ele>635.59997558594</ele>
        <time>2012-06-25T16:43:57Z</time>
      </trkpt>
      <trkpt lat="45.39181" lon="3.74867">
        <ele>635.79998779297</ele>
        <time>2012-06-25T16:44:00Z</time>
      </trkpt>
      <trkpt lat="45.39183" lon="3.74874">
        <ele>636.20001220703</ele>
        <time>2012-06-25T16:44:02Z</time>
      </trkpt>
      <trkpt lat="45.39186" lon="3.74882">
        <ele>637</ele>
        <time>2012-06-25T16:44:05Z</time>
      </trkpt>
      <trkpt lat="45.39189" lon="3.74889">
        <ele>638</ele>
        <time>2012-06-25T16:44:07Z</time>
      </trkpt>
      <trkpt lat="45.39191" lon="3.749">
        <ele>640.40002441406</ele>
        <time>2012-06-25T16:44:10Z</time>
      </trkpt>
      <trkpt lat="45.39194" lon="3.74904">
        <ele>641.59997558594</ele>
        <time>2012-06-25T16:44:12Z</time>
      </trkpt>
      <trkpt lat="45.39196" lon="3.74911">
        <ele>641.5</ele>
        <time>2012-06-25T16:44:15Z</time>
      </trkpt>
      <trkpt lat="45.39203" lon="3.74924">
        <ele>641.70001220703</ele>
        <time>2012-06-25T16:44:20Z</time>
      </trkpt>
      <trkpt lat="45.39208" lon="3.74928">
        <ele>642.40002441406</ele>
        <time>2012-06-25T16:44:23Z</time>
      </trkpt>
      <trkpt lat="45.39212" lon="3.74932">
        <ele>641.59997558594</ele>
        <time>2012-06-25T16:44:25Z</time>
      </trkpt>
      <trkpt lat="45.39214" lon="3.74939">
        <ele>642.59997558594</ele>
        <time>2012-06-25T16:44:27Z</time>
      </trkpt>
      <trkpt lat="45.39213" lon="3.74947">
        <ele>642.40002441406</ele>
        <time>2012-06-25T16:44:30Z</time>
      </trkpt>
      <trkpt lat="45.39213" lon="3.74965">
        <ele>643.79998779297</ele>
        <time>2012-06-25T16:44:36Z</time>
      </trkpt>
      <trkpt lat="45.39213" lon="3.74974">
        <ele>643.90002441406</ele>
        <time>2012-06-25T16:44:39Z</time>
      </trkpt>
      <trkpt lat="45.39213" lon="3.74983">
        <ele>644.20001220703</ele>
        <time>2012-06-25T16:44:42Z</time>
      </trkpt>
      <trkpt lat="45.39214" lon="3.74989">
        <ele>644.79998779297</ele>
        <time>2012-06-25T16:44:44Z</time>
      </trkpt>
      <trkpt lat="45.39214" lon="3.74996">
        <ele>645.29998779297</ele>
        <time>2012-06-25T16:44:46Z</time>
      </trkpt>
      <trkpt lat="45.39213" lon="3.75004">
        <ele>645.59997558594</ele>
        <time>2012-06-25T16:44:49Z</time>
      </trkpt>
      <trkpt lat="45.39213" lon="3.75013">
        <ele>645.40002441406</ele>
        <time>2012-06-25T16:44:52Z</time>
      </trkpt>
      <trkpt lat="45.39213" lon="3.75022">
        <ele>645.90002441406</ele>
        <time>2012-06-25T16:44:55Z</time>
      </trkpt>
      <trkpt lat="45.39213" lon="3.75031">
        <ele>646</ele>
        <time>2012-06-25T16:44:58Z</time>
      </trkpt>
      <trkpt lat="45.39213" lon="3.75039">
        <ele>646</ele>
        <time>2012-06-25T16:45:01Z</time>
      </trkpt>
      <trkpt lat="45.39213" lon="3.75046">
        <ele>644.59997558594</ele>
        <time>2012-06-25T16:45:04Z</time>
      </trkpt>
      <trkpt lat="45.39213" lon="3.75054">
        <ele>644.59997558594</ele>
        <time>2012-06-25T16:45:07Z</time>
      </trkpt>
      <trkpt lat="45.39212" lon="3.75063">
        <ele>644.79998779297</ele>
        <time>2012-06-25T16:45:10Z</time>
      </trkpt>
      <trkpt lat="45.39211" lon="3.7507">
        <ele>643.40002441406</ele>
        <time>2012-06-25T16:45:13Z</time>
      </trkpt>
      <trkpt lat="45.39211" lon="3.7508">
        <ele>644.5</ele>
        <time>2012-06-25T16:45:16Z</time>
      </trkpt>
      <trkpt lat="45.39211" lon="3.75089">
        <ele>645.29998779297</ele>
        <time>2012-06-25T16:45:19Z</time>
      </trkpt>
      <trkpt lat="45.39211" lon="3.75098">
        <ele>645.59997558594</ele>
        <time>2012-06-25T16:45:22Z</time>
      </trkpt>
      <trkpt lat="45.39211" lon="3.75105">
        <ele>646</ele>
        <time>2012-06-25T16:45:24Z</time>
      </trkpt>
      <trkpt lat="45.3921" lon="3.75113">
        <ele>646.59997558594</ele>
        <time>2012-06-25T16:45:27Z</time>
      </trkpt>
      <trkpt lat="45.3921" lon="3.75121">
        <ele>646.70001220703</ele>
        <time>2012-06-25T16:45:30Z</time>
      </trkpt>
      <trkpt lat="45.3921" lon="3.7513">
        <ele>646.70001220703</ele>
        <time>2012-06-25T16:45:33Z</time>
      </trkpt>
      <trkpt lat="45.3921" lon="3.75138">
        <ele>646.20001220703</ele>
        <time>2012-06-25T16:45:36Z</time>
      </trkpt>
      <trkpt lat="45.3921" lon="3.75147">
        <ele>646.40002441406</ele>
        <time>2012-06-25T16:45:39Z</time>
      </trkpt>
      <trkpt lat="45.3921" lon="3.75155">
        <ele>646.29998779297</ele>
        <time>2012-06-25T16:45:42Z</time>
      </trkpt>
      <trkpt lat="45.39211" lon="3.75163">
        <ele>646.59997558594</ele>
        <time>2012-06-25T16:45:45Z</time>
      </trkpt>
      <trkpt lat="45.39213" lon="3.75172">
        <ele>646.90002441406</ele>
        <time>2012-06-25T16:45:48Z</time>
      </trkpt>
      <trkpt lat="45.39215" lon="3.75179">
        <ele>647</ele>
        <time>2012-06-25T16:45:51Z</time>
      </trkpt>
      <trkpt lat="45.39217" lon="3.75186">
        <ele>647.40002441406</ele>
        <time>2012-06-25T16:45:54Z</time>
      </trkpt>
      <trkpt lat="45.3922" lon="3.75193">
        <ele>647.5</ele>
        <time>2012-06-25T16:45:57Z</time>
      </trkpt>
      <trkpt lat="45.39221" lon="3.75199">
        <ele>647.20001220703</ele>
        <time>2012-06-25T16:45:59Z</time>
      </trkpt>
      <trkpt lat="45.39223" lon="3.75207">
        <ele>647.90002441406</ele>
        <time>2012-06-25T16:46:02Z</time>
      </trkpt>
      <trkpt lat="45.39225" lon="3.75215">
        <ele>648.20001220703</ele>
        <time>2012-06-25T16:46:05Z</time>
      </trkpt>
      <trkpt lat="45.39227" lon="3.75222">
        <ele>647.29998779297</ele>
        <time>2012-06-25T16:46:08Z</time>
      </trkpt>
      <trkpt lat="45.39228" lon="3.7523">
        <ele>647.40002441406</ele>
        <time>2012-06-25T16:46:11Z</time>
      </trkpt>
      <trkpt lat="45.3923" lon="3.75238">
        <ele>648</ele>
        <time>2012-06-25T16:46:14Z</time>
      </trkpt>
      <trkpt lat="45.39233" lon="3.75247">
        <ele>648.70001220703</ele>
        <time>2012-06-25T16:46:17Z</time>
      </trkpt>
      <trkpt lat="45.39234" lon="3.75256">
        <ele>649.5</ele>
        <time>2012-06-25T16:46:20Z</time>
      </trkpt>
      <trkpt lat="45.39236" lon="3.75265">
        <ele>648.79998779297</ele>
        <time>2012-06-25T16:46:23Z</time>
      </trkpt>
      <trkpt lat="45.39236" lon="3.75272">
        <ele>648.79998779297</ele>
        <time>2012-06-25T16:46:26Z</time>
      </trkpt>
      <trkpt lat="45.39238" lon="3.75281">
        <ele>649.70001220703</ele>
        <time>2012-06-25T16:46:29Z</time>
      </trkpt>
      <trkpt lat="45.3924" lon="3.7529">
        <ele>649.5</ele>
        <time>2012-06-25T16:46:32Z</time>
      </trkpt>
      <trkpt lat="45.39241" lon="3.75298">
        <ele>649.79998779297</ele>
        <time>2012-06-25T16:46:35Z</time>
      </trkpt>
      <trkpt lat="45.39241" lon="3.75308">
        <ele>650.20001220703</ele>
        <time>2012-06-25T16:46:38Z</time>
      </trkpt>
      <trkpt lat="45.39242" lon="3.75318">
        <ele>650.40002441406</ele>
        <time>2012-06-25T16:46:41Z</time>
      </trkpt>
      <trkpt lat="45.39242" lon="3.75327">
        <ele>650.40002441406</ele>
        <time>2012-06-25T16:46:44Z</time>
      </trkpt>
      <trkpt lat="45.39242" lon="3.7534">
        <ele>650</ele>
        <time>2012-06-25T16:46:47Z</time>
      </trkpt>
      <trkpt lat="45.39242" lon="3.75353">
        <ele>649.90002441406</ele>
        <time>2012-06-25T16:46:53Z</time>
      </trkpt>
      <trkpt lat="45.39242" lon="3.75359">
        <ele>651</ele>
        <time>2012-06-25T16:46:55Z</time>
      </trkpt>
      <trkpt lat="45.39242" lon="3.75368">
        <ele>650.5</ele>
        <time>2012-06-25T16:46:59Z</time>
      </trkpt>
      <trkpt lat="45.39243" lon="3.75377">
        <ele>650.09997558594</ele>
        <time>2012-06-25T16:47:01Z</time>
      </trkpt>
      <trkpt lat="45.39242" lon="3.75387">
        <ele>650.09997558594</ele>
        <time>2012-06-25T16:47:05Z</time>
      </trkpt>
      <trkpt lat="45.3924" lon="3.75395">
        <ele>649.5</ele>
        <time>2012-06-25T16:47:07Z</time>
      </trkpt>
      <trkpt lat="45.39239" lon="3.75402">
        <ele>651.40002441406</ele>
        <time>2012-06-25T16:47:10Z</time>
      </trkpt>
      <trkpt lat="45.39239" lon="3.75422">
        <ele>654.20001220703</ele>
        <time>2012-06-25T16:47:17Z</time>
      </trkpt>
      <trkpt lat="45.39238" lon="3.75428">
        <ele>656.29998779297</ele>
        <time>2012-06-25T16:47:20Z</time>
      </trkpt>
      <trkpt lat="45.39237" lon="3.75437">
        <ele>654.5</ele>
        <time>2012-06-25T16:47:23Z</time>
      </trkpt>
      <trkpt lat="45.39238" lon="3.75444">
        <ele>654.70001220703</ele>
        <time>2012-06-25T16:47:26Z</time>
      </trkpt>
      <trkpt lat="45.39236" lon="3.75452">
        <ele>655.40002441406</ele>
        <time>2012-06-25T16:47:28Z</time>
      </trkpt>
      <trkpt lat="45.39237" lon="3.75461">
        <ele>652.5</ele>
        <time>2012-06-25T16:47:33Z</time>
      </trkpt>
      <trkpt lat="45.39237" lon="3.75469">
        <ele>652.20001220703</ele>
        <time>2012-06-25T16:47:35Z</time>
      </trkpt>
      <trkpt lat="45.39236" lon="3.75482">
        <ele>652.40002441406</ele>
        <time>2012-06-25T16:47:40Z</time>
      </trkpt>
      <trkpt lat="45.39235" lon="3.75489">
        <ele>652.79998779297</ele>
        <time>2012-06-25T16:47:41Z</time>
      </trkpt>
      <trkpt lat="45.39236" lon="3.75496">
        <ele>652.29998779297</ele>
        <time>2012-06-25T16:47:46Z</time>
      </trkpt>
      <trkpt lat="45.39236" lon="3.75504">
        <ele>651.79998779297</ele>
        <time>2012-06-25T16:47:48Z</time>
      </trkpt>
      <trkpt lat="45.39235" lon="3.75513">
        <ele>653.29998779297</ele>
        <time>2012-06-25T16:47:51Z</time>
      </trkpt>
      <trkpt lat="45.39235" lon="3.75522">
        <ele>654</ele>
        <time>2012-06-25T16:47:54Z</time>
      </trkpt>
      <trkpt lat="45.39233" lon="3.75533">
        <ele>652.90002441406</ele>
        <time>2012-06-25T16:47:58Z</time>
      </trkpt>
      <trkpt lat="45.39235" lon="3.75541">
        <ele>648.70001220703</ele>
        <time>2012-06-25T16:48:02Z</time>
      </trkpt>
      <trkpt lat="45.39232" lon="3.7556">
        <ele>648</ele>
        <time>2012-06-25T16:48:09Z</time>
      </trkpt>
      <trkpt lat="45.3923" lon="3.75567">
        <ele>647.20001220703</ele>
        <time>2012-06-25T16:48:11Z</time>
      </trkpt>
      <trkpt lat="45.39224" lon="3.75584">
        <ele>646.29998779297</ele>
        <time>2012-06-25T16:48:18Z</time>
      </trkpt>
      <trkpt lat="45.39223" lon="3.7559">
        <ele>647.90002441406</ele>
        <time>2012-06-25T16:48:21Z</time>
      </trkpt>
      <trkpt lat="45.39218" lon="3.75613">
        <ele>649.70001220703</ele>
        <time>2012-06-25T16:48:29Z</time>
      </trkpt>
      <trkpt lat="45.39218" lon="3.75622">
        <ele>648.20001220703</ele>
        <time>2012-06-25T16:48:32Z</time>
      </trkpt>
      <trkpt lat="45.39216" lon="3.75628">
        <ele>648.59997558594</ele>
        <time>2012-06-25T16:48:35Z</time>
      </trkpt>
      <trkpt lat="45.39214" lon="3.75636">
        <ele>648.70001220703</ele>
        <time>2012-06-25T16:48:38Z</time>
      </trkpt>
      <trkpt lat="45.39213" lon="3.75645">
        <ele>648.09997558594</ele>
        <time>2012-06-25T16:48:42Z</time>
      </trkpt>
      <trkpt lat="45.39212" lon="3.75654">
        <ele>645.70001220703</ele>
        <time>2012-06-25T16:48:45Z</time>
      </trkpt>
      <trkpt lat="45.3921" lon="3.75662">
        <ele>646.40002441406</ele>
        <time>2012-06-25T16:48:48Z</time>
      </trkpt>
      <trkpt lat="45.39209" lon="3.75669">
        <ele>647.70001220703</ele>
        <time>2012-06-25T16:48:50Z</time>
      </trkpt>
      <trkpt lat="45.39207" lon="3.75675">
        <ele>648.5</ele>
        <time>2012-06-25T16:48:53Z</time>
      </trkpt>
      <trkpt lat="45.39204" lon="3.75681">
        <ele>650</ele>
        <time>2012-06-25T16:48:55Z</time>
      </trkpt>
      <trkpt lat="45.39204" lon="3.7569">
        <ele>650</ele>
        <time>2012-06-25T16:48:58Z</time>
      </trkpt>
      <trkpt lat="45.39202" lon="3.75697">
        <ele>650.70001220703</ele>
        <time>2012-06-25T16:49:01Z</time>
      </trkpt>
      <trkpt lat="45.392" lon="3.75707">
        <ele>653.90002441406</ele>
        <time>2012-06-25T16:49:04Z</time>
      </trkpt>
      <trkpt lat="45.39199" lon="3.7572">
        <ele>654.09997558594</ele>
        <time>2012-06-25T16:49:08Z</time>
      </trkpt>
      <trkpt lat="45.39198" lon="3.75727">
        <ele>654.40002441406</ele>
        <time>2012-06-25T16:49:10Z</time>
      </trkpt>
      <trkpt lat="45.392" lon="3.75734">
        <ele>654.79998779297</ele>
        <time>2012-06-25T16:49:13Z</time>
      </trkpt>
      <trkpt lat="45.39204" lon="3.75747">
        <ele>655.59997558594</ele>
        <time>2012-06-25T16:49:18Z</time>
      </trkpt>
      <trkpt lat="45.39207" lon="3.75753">
        <ele>655.59997558594</ele>
        <time>2012-06-25T16:49:20Z</time>
      </trkpt>
      <trkpt lat="45.3921" lon="3.7576">
        <ele>656.5</ele>
        <time>2012-06-25T16:49:22Z</time>
      </trkpt>
      <trkpt lat="45.39197" lon="3.75753">
        <ele>656.59997558594</ele>
        <time>2012-06-25T16:49:24Z</time>
      </trkpt>
      <trkpt lat="45.39204" lon="3.75773">
        <ele>657.09997558594</ele>
        <time>2012-06-25T16:49:29Z</time>
      </trkpt>
      <trkpt lat="45.39203" lon="3.75773">
        <ele>656.46752929688</ele>
        <time>2012-06-25T16:49:29Z</time>
      </trkpt>
      <trkpt lat="45.39202" lon="3.75787">
        <ele>656.40002441406</ele>
        <time>2012-06-25T16:49:34Z</time>
      </trkpt>
      <trkpt lat="45.39204" lon="3.75792">
        <ele>653.29998779297</ele>
        <time>2012-06-25T16:49:37Z</time>
      </trkpt>
      <trkpt lat="45.39204" lon="3.75799">
        <ele>653.79998779297</ele>
        <time>2012-06-25T16:49:39Z</time>
      </trkpt>
      <trkpt lat="45.39205" lon="3.75806">
        <ele>654.40002441406</ele>
        <time>2012-06-25T16:49:41Z</time>
      </trkpt>
      <trkpt lat="45.39203" lon="3.75814">
        <ele>653.59997558594</ele>
        <time>2012-06-25T16:49:44Z</time>
      </trkpt>
      <trkpt lat="45.39201" lon="3.75822">
        <ele>653.59997558594</ele>
        <time>2012-06-25T16:49:48Z</time>
      </trkpt>
      <trkpt lat="45.39197" lon="3.75824">
        <ele>654.5</ele>
        <time>2012-06-25T16:49:50Z</time>
      </trkpt>
      <trkpt lat="45.39194" lon="3.75829">
        <ele>655.40002441406</ele>
        <time>2012-06-25T16:49:52Z</time>
      </trkpt>
      <trkpt lat="45.39189" lon="3.75833">
        <ele>655</ele>
        <time>2012-06-25T16:49:54Z</time>
      </trkpt>
      <trkpt lat="45.39182" lon="3.75836">
        <ele>655.79998779297</ele>
        <time>2012-06-25T16:49:58Z</time>
      </trkpt>
      <trkpt lat="45.39177" lon="3.75842">
        <ele>656</ele>
        <time>2012-06-25T16:50:01Z</time>
      </trkpt>
      <trkpt lat="45.39173" lon="3.75846">
        <ele>657.09997558594</ele>
        <time>2012-06-25T16:50:03Z</time>
      </trkpt>
      <trkpt lat="45.39169" lon="3.75848">
        <ele>656.20001220703</ele>
        <time>2012-06-25T16:50:05Z</time>
      </trkpt>
      <trkpt lat="45.39163" lon="3.75848">
        <ele>656.5</ele>
        <time>2012-06-25T16:50:08Z</time>
      </trkpt>
      <trkpt lat="45.39154" lon="3.75853">
        <ele>654.90002441406</ele>
        <time>2012-06-25T16:50:11Z</time>
      </trkpt>
      <trkpt lat="45.39149" lon="3.75857">
        <ele>656.40002441406</ele>
        <time>2012-06-25T16:50:14Z</time>
      </trkpt>
      <trkpt lat="45.39143" lon="3.75861">
        <ele>656.5</ele>
        <time>2012-06-25T16:50:17Z</time>
      </trkpt>
      <trkpt lat="45.39138" lon="3.75867">
        <ele>657.59997558594</ele>
        <time>2012-06-25T16:50:20Z</time>
      </trkpt>
      <trkpt lat="45.39127" lon="3.75878">
        <ele>657.20001220703</ele>
        <time>2012-06-25T16:50:26Z</time>
      </trkpt>
      <trkpt lat="45.39119" lon="3.75883">
        <ele>655.79998779297</ele>
        <time>2012-06-25T16:50:29Z</time>
      </trkpt>
      <trkpt lat="45.39111" lon="3.75885">
        <ele>656.59997558594</ele>
        <time>2012-06-25T16:50:32Z</time>
      </trkpt>
      <trkpt lat="45.39094" lon="3.75893">
        <ele>656.59997558594</ele>
        <time>2012-06-25T16:50:40Z</time>
      </trkpt>
      <trkpt lat="45.39086" lon="3.75895">
        <ele>656.20001220703</ele>
        <time>2012-06-25T16:50:43Z</time>
      </trkpt>
      <trkpt lat="45.39083" lon="3.75901">
        <ele>644.09997558594</ele>
        <time>2012-06-25T16:50:49Z</time>
      </trkpt>
      <trkpt lat="45.39079" lon="3.75904">
        <ele>643.5</ele>
        <time>2012-06-25T16:50:55Z</time>
      </trkpt>
      <trkpt lat="45.39075" lon="3.75905">
        <ele>643.43975830078</ele>
        <time>2012-06-25T16:50:56Z</time>
      </trkpt>
      <trkpt lat="45.39064" lon="3.75911">
        <ele>642</ele>
        <time>2012-06-25T16:51:01Z</time>
      </trkpt>
      <trkpt lat="45.39059" lon="3.75914">
        <ele>641.70001220703</ele>
        <time>2012-06-25T16:51:05Z</time>
      </trkpt>
      <trkpt lat="45.39056" lon="3.75919">
        <ele>641.40002441406</ele>
        <time>2012-06-25T16:51:06Z</time>
      </trkpt>
      <trkpt lat="45.39053" lon="3.75925">
        <ele>641.09997558594</ele>
        <time>2012-06-25T16:51:09Z</time>
      </trkpt>
      <trkpt lat="45.39051" lon="3.75933">
        <ele>644.40002441406</ele>
        <time>2012-06-25T16:51:12Z</time>
      </trkpt>
      <trkpt lat="45.39048" lon="3.75938">
        <ele>648.09997558594</ele>
        <time>2012-06-25T16:51:13Z</time>
      </trkpt>
      <trkpt lat="45.39039" lon="3.7595">
        <ele>651.70001220703</ele>
        <time>2012-06-25T16:51:18Z</time>
      </trkpt>
      <trkpt lat="45.39033" lon="3.75951">
        <ele>651.20001220703</ele>
        <time>2012-06-25T16:51:21Z</time>
      </trkpt>
      <trkpt lat="45.39029" lon="3.75951">
        <ele>652.90002441406</ele>
        <time>2012-06-25T16:51:23Z</time>
      </trkpt>
      <trkpt lat="45.39023" lon="3.75947">
        <ele>653.29998779297</ele>
        <time>2012-06-25T16:51:26Z</time>
      </trkpt>
      <trkpt lat="45.39018" lon="3.75943">
        <ele>654.5</ele>
        <time>2012-06-25T16:51:28Z</time>
      </trkpt>
      <trkpt lat="45.39012" lon="3.75942">
        <ele>655</ele>
        <time>2012-06-25T16:51:30Z</time>
      </trkpt>
      <trkpt lat="45.39006" lon="3.75939">
        <ele>654.20001220703</ele>
        <time>2012-06-25T16:51:33Z</time>
      </trkpt>
      <trkpt lat="45.38999" lon="3.75935">
        <ele>653.40002441406</ele>
        <time>2012-06-25T16:51:36Z</time>
      </trkpt>
      <trkpt lat="45.38994" lon="3.75932">
        <ele>651</ele>
        <time>2012-06-25T16:51:39Z</time>
      </trkpt>
      <trkpt lat="45.38989" lon="3.7593">
        <ele>649</ele>
        <time>2012-06-25T16:51:41Z</time>
      </trkpt>
      <trkpt lat="45.38983" lon="3.75928">
        <ele>646.70001220703</ele>
        <time>2012-06-25T16:51:44Z</time>
      </trkpt>
      <trkpt lat="45.38978" lon="3.75924">
        <ele>650</ele>
        <time>2012-06-25T16:51:47Z</time>
      </trkpt>
      <trkpt lat="45.38971" lon="3.7592">
        <ele>650.40002441406</ele>
        <time>2012-06-25T16:51:50Z</time>
      </trkpt>
      <trkpt lat="45.38967" lon="3.75918">
        <ele>652.09997558594</ele>
        <time>2012-06-25T16:51:53Z</time>
      </trkpt>
      <trkpt lat="45.38961" lon="3.75916">
        <ele>655.59997558594</ele>
        <time>2012-06-25T16:51:56Z</time>
      </trkpt>
      <trkpt lat="45.38955" lon="3.75916">
        <ele>656.09997558594</ele>
        <time>2012-06-25T16:51:59Z</time>
      </trkpt>
      <trkpt lat="45.38951" lon="3.75914">
        <ele>656.5</ele>
        <time>2012-06-25T16:52:01Z</time>
      </trkpt>
      <trkpt lat="45.38944" lon="3.75912">
        <ele>656.29998779297</ele>
        <time>2012-06-25T16:52:04Z</time>
      </trkpt>
      <trkpt lat="45.3894" lon="3.75912">
        <ele>655.70001220703</ele>
        <time>2012-06-25T16:52:06Z</time>
      </trkpt>
      <trkpt lat="45.38933" lon="3.75915">
        <ele>655.79998779297</ele>
        <time>2012-06-25T16:52:09Z</time>
      </trkpt>
      <trkpt lat="45.38927" lon="3.75914">
        <ele>651.59997558594</ele>
        <time>2012-06-25T16:52:14Z</time>
      </trkpt>
      <trkpt lat="45.38922" lon="3.75915">
        <ele>654</ele>
        <time>2012-06-25T16:52:16Z</time>
      </trkpt>
      <trkpt lat="45.38917" lon="3.75914">
        <ele>655.90002441406</ele>
        <time>2012-06-25T16:52:18Z</time>
      </trkpt>
      <trkpt lat="45.38912" lon="3.75915">
        <ele>656.79998779297</ele>
        <time>2012-06-25T16:52:21Z</time>
      </trkpt>
      <trkpt lat="45.38906" lon="3.75916">
        <ele>658.20001220703</ele>
        <time>2012-06-25T16:52:24Z</time>
      </trkpt>
      <trkpt lat="45.38901" lon="3.75916">
        <ele>660.09997558594</ele>
        <time>2012-06-25T16:52:27Z</time>
      </trkpt>
      <trkpt lat="45.38895" lon="3.75914">
        <ele>659.5</ele>
        <time>2012-06-25T16:52:30Z</time>
      </trkpt>
      <trkpt lat="45.38888" lon="3.7591">
        <ele>655.90002441406</ele>
        <time>2012-06-25T16:52:34Z</time>
      </trkpt>
      <trkpt lat="45.38881" lon="3.7591">
        <ele>657.90002441406</ele>
        <time>2012-06-25T16:52:37Z</time>
      </trkpt>
      <trkpt lat="45.38875" lon="3.7591">
        <ele>656</ele>
        <time>2012-06-25T16:52:40Z</time>
      </trkpt>
      <trkpt lat="45.3887" lon="3.75909">
        <ele>655.79998779297</ele>
        <time>2012-06-25T16:52:42Z</time>
      </trkpt>
      <trkpt lat="45.38866" lon="3.7591">
        <ele>656.40002441406</ele>
        <time>2012-06-25T16:52:44Z</time>
      </trkpt>
      <trkpt lat="45.3886" lon="3.75911">
        <ele>655.40002441406</ele>
        <time>2012-06-25T16:52:47Z</time>
      </trkpt>
      <trkpt lat="45.38856" lon="3.7591">
        <ele>656.29998779297</ele>
        <time>2012-06-25T16:52:49Z</time>
      </trkpt>
      <trkpt lat="45.38846" lon="3.75909">
        <ele>655.79998779297</ele>
        <time>2012-06-25T16:52:53Z</time>
      </trkpt>
      <trkpt lat="45.38839" lon="3.75908">
        <ele>656.09997558594</ele>
        <time>2012-06-25T16:52:56Z</time>
      </trkpt>
      <trkpt lat="45.38826" lon="3.75907">
        <ele>655.09997558594</ele>
        <time>2012-06-25T16:53:02Z</time>
      </trkpt>
      <trkpt lat="45.3882" lon="3.75906">
        <ele>653.90002441406</ele>
        <time>2012-06-25T16:53:05Z</time>
      </trkpt>
      <trkpt lat="45.38816" lon="3.75908">
        <ele>650.70001220703</ele>
        <time>2012-06-25T16:53:07Z</time>
      </trkpt>
      <trkpt lat="45.38811" lon="3.7591">
        <ele>650.29998779297</ele>
        <time>2012-06-25T16:53:09Z</time>
      </trkpt>
      <trkpt lat="45.38806" lon="3.75907">
        <ele>651.5</ele>
        <time>2012-06-25T16:53:11Z</time>
      </trkpt>
      <trkpt lat="45.388" lon="3.75906">
        <ele>652.5</ele>
        <time>2012-06-25T16:53:13Z</time>
      </trkpt>
      <trkpt lat="45.38795" lon="3.75909">
        <ele>654.09997558594</ele>
        <time>2012-06-25T16:53:17Z</time>
      </trkpt>
      <trkpt lat="45.3879" lon="3.75907">
        <ele>654.79998779297</ele>
        <time>2012-06-25T16:53:19Z</time>
      </trkpt>
      <trkpt lat="45.38779" lon="3.75904">
        <ele>654.29998779297</ele>
        <time>2012-06-25T16:53:23Z</time>
      </trkpt>
      <trkpt lat="45.38772" lon="3.75905">
        <ele>652</ele>
        <time>2012-06-25T16:53:26Z</time>
      </trkpt>
      <trkpt lat="45.38764" lon="3.75896">
        <ele>653.70001220703</ele>
        <time>2012-06-25T16:53:31Z</time>
      </trkpt>
      <trkpt lat="45.38748" lon="3.75885">
        <ele>653.09997558594</ele>
        <time>2012-06-25T16:53:37Z</time>
      </trkpt>
      <trkpt lat="45.38745" lon="3.75881">
        <ele>654</ele>
        <time>2012-06-25T16:53:39Z</time>
      </trkpt>
      <trkpt lat="45.3874" lon="3.75875">
        <ele>653.70001220703</ele>
        <time>2012-06-25T16:53:41Z</time>
      </trkpt>
      <trkpt lat="45.38734" lon="3.75869">
        <ele>651.5</ele>
        <time>2012-06-25T16:53:45Z</time>
      </trkpt>
      <trkpt lat="45.3873" lon="3.7586">
        <ele>651.79998779297</ele>
        <time>2012-06-25T16:53:48Z</time>
      </trkpt>
      <trkpt lat="45.38726" lon="3.75854">
        <ele>652</ele>
        <time>2012-06-25T16:53:50Z</time>
      </trkpt>
      <trkpt lat="45.38722" lon="3.75849">
        <ele>655.09997558594</ele>
        <time>2012-06-25T16:53:55Z</time>
      </trkpt>
      <trkpt lat="45.3872" lon="3.75841">
        <ele>651</ele>
        <time>2012-06-25T16:53:57Z</time>
      </trkpt>
      <trkpt lat="45.3871" lon="3.75829">
        <ele>650.70001220703</ele>
        <time>2012-06-25T16:54:03Z</time>
      </trkpt>
      <trkpt lat="45.38706" lon="3.75824">
        <ele>651.29998779297</ele>
        <time>2012-06-25T16:54:06Z</time>
      </trkpt>
      <trkpt lat="45.38698" lon="3.75818">
        <ele>648.29998779297</ele>
        <time>2012-06-25T16:54:10Z</time>
      </trkpt>
      <trkpt lat="45.38694" lon="3.75814">
        <ele>649.40002441406</ele>
        <time>2012-06-25T16:54:13Z</time>
      </trkpt>
      <trkpt lat="45.38687" lon="3.75792">
        <ele>649.09997558594</ele>
        <time>2012-06-25T16:54:21Z</time>
      </trkpt>
      <trkpt lat="45.38683" lon="3.75787">
        <ele>648.20001220703</ele>
        <time>2012-06-25T16:54:24Z</time>
      </trkpt>
      <trkpt lat="45.38678" lon="3.75782">
        <ele>649</ele>
        <time>2012-06-25T16:54:26Z</time>
      </trkpt>
      <trkpt lat="45.38675" lon="3.75776">
        <ele>649.70001220703</ele>
        <time>2012-06-25T16:54:28Z</time>
      </trkpt>
      <trkpt lat="45.38671" lon="3.75768">
        <ele>653.5</ele>
        <time>2012-06-25T16:54:31Z</time>
      </trkpt>
      <trkpt lat="45.38663" lon="3.75766">
        <ele>653.20001220703</ele>
        <time>2012-06-25T16:54:35Z</time>
      </trkpt>
      <trkpt lat="45.3866" lon="3.75759">
        <ele>653.90002441406</ele>
        <time>2012-06-25T16:54:38Z</time>
      </trkpt>
      <trkpt lat="45.38654" lon="3.75756">
        <ele>654.40002441406</ele>
        <time>2012-06-25T16:54:40Z</time>
      </trkpt>
      <trkpt lat="45.3865" lon="3.75749">
        <ele>653.29998779297</ele>
        <time>2012-06-25T16:54:43Z</time>
      </trkpt>
      <trkpt lat="45.38646" lon="3.75746">
        <ele>651.70001220703</ele>
        <time>2012-06-25T16:54:45Z</time>
      </trkpt>
      <trkpt lat="45.38641" lon="3.75743">
        <ele>652</ele>
        <time>2012-06-25T16:54:48Z</time>
      </trkpt>
      <trkpt lat="45.38637" lon="3.75739">
        <ele>652.59997558594</ele>
        <time>2012-06-25T16:54:50Z</time>
      </trkpt>
      <trkpt lat="45.38631" lon="3.75727">
        <ele>651.59997558594</ele>
        <time>2012-06-25T16:54:55Z</time>
      </trkpt>
      <trkpt lat="45.38626" lon="3.75718">
        <ele>652.79998779297</ele>
        <time>2012-06-25T16:54:59Z</time>
      </trkpt>
      <trkpt lat="45.38626" lon="3.75709">
        <ele>650.40002441406</ele>
        <time>2012-06-25T16:55:03Z</time>
      </trkpt>
      <trkpt lat="45.38619" lon="3.75708">
        <ele>650.09997558594</ele>
        <time>2012-06-25T16:55:06Z</time>
      </trkpt>
      <trkpt lat="45.38599" lon="3.75703">
        <ele>649.29998779297</ele>
        <time>2012-06-25T16:55:11Z</time>
      </trkpt>
      <trkpt lat="45.38595" lon="3.75693">
        <ele>647.29998779297</ele>
        <time>2012-06-25T16:55:13Z</time>
      </trkpt>
      <trkpt lat="45.3859" lon="3.75687">
        <ele>646.59997558594</ele>
        <time>2012-06-25T16:55:17Z</time>
      </trkpt>
      <trkpt lat="45.3859" lon="3.75679">
        <ele>649.29998779297</ele>
        <time>2012-06-25T16:55:20Z</time>
      </trkpt>
      <trkpt lat="45.3858" lon="3.75675">
        <ele>648.40002441406</ele>
        <time>2012-06-25T16:55:23Z</time>
      </trkpt>
      <trkpt lat="45.38577" lon="3.75672">
        <ele>650.70001220703</ele>
        <time>2012-06-25T16:55:25Z</time>
      </trkpt>
      <trkpt lat="45.38571" lon="3.75668">
        <ele>652.09997558594</ele>
        <time>2012-06-25T16:55:29Z</time>
      </trkpt>
      <trkpt lat="45.38565" lon="3.75667">
        <ele>652.59997558594</ele>
        <time>2012-06-25T16:55:31Z</time>
      </trkpt>
      <trkpt lat="45.3856" lon="3.75667">
        <ele>652</ele>
        <time>2012-06-25T16:55:34Z</time>
      </trkpt>
      <trkpt lat="45.38553" lon="3.75669">
        <ele>651.40002441406</ele>
        <time>2012-06-25T16:55:36Z</time>
      </trkpt>
      <trkpt lat="45.38547" lon="3.7567">
        <ele>654.5</ele>
        <time>2012-06-25T16:55:40Z</time>
      </trkpt>
      <trkpt lat="45.38535" lon="3.75667">
        <ele>656.09997558594</ele>
        <time>2012-06-25T16:55:46Z</time>
      </trkpt>
      <trkpt lat="45.3853" lon="3.75667">
        <ele>657.5</ele>
        <time>2012-06-25T16:55:48Z</time>
      </trkpt>
      <trkpt lat="45.38524" lon="3.75666">
        <ele>655.79998779297</ele>
        <time>2012-06-25T16:55:51Z</time>
      </trkpt>
      <trkpt lat="45.38516" lon="3.75657">
        <ele>660.29998779297</ele>
        <time>2012-06-25T16:55:56Z</time>
      </trkpt>
      <trkpt lat="45.38513" lon="3.75647">
        <ele>660.20001220703</ele>
        <time>2012-06-25T16:56:00Z</time>
      </trkpt>
      <trkpt lat="45.38509" lon="3.75631">
        <ele>659.79998779297</ele>
        <time>2012-06-25T16:56:05Z</time>
      </trkpt>
      <trkpt lat="45.38511" lon="3.75624">
        <ele>660.59997558594</ele>
        <time>2012-06-25T16:56:08Z</time>
      </trkpt>
      <trkpt lat="45.38511" lon="3.75602">
        <ele>662.40002441406</ele>
        <time>2012-06-25T16:56:13Z</time>
      </trkpt>
      <trkpt lat="45.38506" lon="3.756">
        <ele>662.29998779297</ele>
        <time>2012-06-25T16:56:14Z</time>
      </trkpt>
      <trkpt lat="45.38507" lon="3.75592">
        <ele>662.59997558594</ele>
        <time>2012-06-25T16:56:17Z</time>
      </trkpt>
      <trkpt lat="45.38507" lon="3.75585">
        <ele>665.20001220703</ele>
        <time>2012-06-25T16:56:19Z</time>
      </trkpt>
      <trkpt lat="45.38506" lon="3.75577">
        <ele>665.20001220703</ele>
        <time>2012-06-25T16:56:22Z</time>
      </trkpt>
      <trkpt lat="45.38503" lon="3.7554">
        <ele>658.20001220703</ele>
        <time>2012-06-25T16:56:30Z</time>
      </trkpt>
      <trkpt lat="45.38499" lon="3.75534">
        <ele>657.79998779297</ele>
        <time>2012-06-25T16:56:33Z</time>
      </trkpt>
      <trkpt lat="45.38495" lon="3.75528">
        <ele>658.59997558594</ele>
        <time>2012-06-25T16:56:35Z</time>
      </trkpt>
      <trkpt lat="45.38489" lon="3.75525">
        <ele>654.40002441406</ele>
        <time>2012-06-25T16:56:38Z</time>
      </trkpt>
      <trkpt lat="45.38488" lon="3.75516">
        <ele>653.40002441406</ele>
        <time>2012-06-25T16:56:41Z</time>
      </trkpt>
      <trkpt lat="45.38487" lon="3.7551">
        <ele>651.59997558594</ele>
        <time>2012-06-25T16:56:43Z</time>
      </trkpt>
      <trkpt lat="45.38487" lon="3.75502">
        <ele>652.70001220703</ele>
        <time>2012-06-25T16:56:46Z</time>
      </trkpt>
      <trkpt lat="45.38483" lon="3.75495">
        <ele>652.59997558594</ele>
        <time>2012-06-25T16:56:49Z</time>
      </trkpt>
      <trkpt lat="45.3848" lon="3.75487">
        <ele>656</ele>
        <time>2012-06-25T16:56:52Z</time>
      </trkpt>
      <trkpt lat="45.38479" lon="3.75478">
        <ele>657</ele>
        <time>2012-06-25T16:56:55Z</time>
      </trkpt>
      <trkpt lat="45.38478" lon="3.7547">
        <ele>656.59997558594</ele>
        <time>2012-06-25T16:56:58Z</time>
      </trkpt>
      <trkpt lat="45.38475" lon="3.75461">
        <ele>655.59997558594</ele>
        <time>2012-06-25T16:57:01Z</time>
      </trkpt>
      <trkpt lat="45.38474" lon="3.75453">
        <ele>657.40002441406</ele>
        <time>2012-06-25T16:57:03Z</time>
      </trkpt>
      <trkpt lat="45.3847" lon="3.75445">
        <ele>656.09997558594</ele>
        <time>2012-06-25T16:57:06Z</time>
      </trkpt>
      <trkpt lat="45.38469" lon="3.75429">
        <ele>657.70001220703</ele>
        <time>2012-06-25T16:57:10Z</time>
      </trkpt>
      <trkpt lat="45.38465" lon="3.75425">
        <ele>655.70001220703</ele>
        <time>2012-06-25T16:57:14Z</time>
      </trkpt>
      <trkpt lat="45.38463" lon="3.75418">
        <ele>656.90002441406</ele>
        <time>2012-06-25T16:57:16Z</time>
      </trkpt>
      <trkpt lat="45.3846" lon="3.75411">
        <ele>655.90002441406</ele>
        <time>2012-06-25T16:57:19Z</time>
      </trkpt>
      <trkpt lat="45.38454" lon="3.75398">
        <ele>657.20001220703</ele>
        <time>2012-06-25T16:57:23Z</time>
      </trkpt>
      <trkpt lat="45.38452" lon="3.75391">
        <ele>658.79998779297</ele>
        <time>2012-06-25T16:57:26Z</time>
      </trkpt>
      <trkpt lat="45.38451" lon="3.7538">
        <ele>658.90002441406</ele>
        <time>2012-06-25T16:57:29Z</time>
      </trkpt>
      <trkpt lat="45.38447" lon="3.75368">
        <ele>661.09997558594</ele>
        <time>2012-06-25T16:57:35Z</time>
      </trkpt>
      <trkpt lat="45.38446" lon="3.75361">
        <ele>662.40936279297</ele>
        <time>2012-06-25T16:57:36Z</time>
      </trkpt>
      <trkpt lat="45.38443" lon="3.75353">
        <ele>661.79998779297</ele>
        <time>2012-06-25T16:57:38Z</time>
      </trkpt>
      <trkpt lat="45.38443" lon="3.75347">
        <ele>663</ele>
        <time>2012-06-25T16:57:40Z</time>
      </trkpt>
      <trkpt lat="45.38442" lon="3.75337">
        <ele>664.40002441406</ele>
        <time>2012-06-25T16:57:43Z</time>
      </trkpt>
      <trkpt lat="45.3844" lon="3.75328">
        <ele>667</ele>
        <time>2012-06-25T16:57:46Z</time>
      </trkpt>
      <trkpt lat="45.38435" lon="3.75321">
        <ele>666.90002441406</ele>
        <time>2012-06-25T16:57:48Z</time>
      </trkpt>
      <trkpt lat="45.38433" lon="3.75315">
        <ele>667.09997558594</ele>
        <time>2012-06-25T16:57:50Z</time>
      </trkpt>
    </trkseg>
  </trk>
</gpx>